sensor_id;sensor_type;location;lat;lon;timestamp;temperature;humidity
59651;DHT22;45954;49.768;8.636;2023-06-14T00:00:00;21.60;57.50
59651;DHT22;45954;49.768;8.636;2023-06-14T00:02:26;21.60;58.00
59651;DHT22;45954;49.768;8.636;2023-06-14T00:04:51;21.70;57.50
59651;DHT22;45954;49.768;8.636;2023-06-14T00:07:18;21.60;57.70
59651;DHT22;45954;49.768;8.636;2023-06-14T00:09:44;21.60;58.00
59651;DHT22;45954;49.768;8.636;2023-06-14T00:12:10;21.60;57.40
59651;DHT22;45954;49.768;8.636;2023-06-14T00:14:35;21.60;57.70
59651;DHT22;45954;49.768;8.636;2023-06-14T00:17:01;21.60;57.50
59651;DHT22;45954;49.768;8.636;2023-06-14T00:19:28;21.60;57.50
59651;DHT22;45954;49.768;8.636;2023-06-14T00:21:56;21.50;57.80
59651;DHT22;45954;49.768;8.636;2023-06-14T00:24:22;21.50;57.80
59651;DHT22;45954;49.768;8.636;2023-06-14T00:26:48;21.50;58.00
59651;DHT22;45954;49.768;8.636;2023-06-14T00:29:14;21.30;58.10
59651;DHT22;45954;49.768;8.636;2023-06-14T00:31:40;21.40;58.40
59651;DHT22;45954;49.768;8.636;2023-06-14T00:34:06;21.30;58.10
59651;DHT22;45954;49.768;8.636;2023-06-14T00:36:32;21.30;58.20
59651;DHT22;45954;49.768;8.636;2023-06-14T00:38:57;21.30;58.40
59651;DHT22;45954;49.768;8.636;2023-06-14T00:41:23;21.10;58.30
59651;DHT22;45954;49.768;8.636;2023-06-14T00:43:50;21.20;58.50
59651;DHT22;45954;49.768;8.636;2023-06-14T00:46:16;21.30;58.70
59651;DHT22;45954;49.768;8.636;2023-06-14T00:48:42;21.20;58.20
59651;DHT22;45954;49.768;8.636;2023-06-14T00:51:08;21.20;58.40
59651;DHT22;45954;49.768;8.636;2023-06-14T00:53:34;21.10;58.40
59651;DHT22;45954;49.768;8.636;2023-06-14T00:56:01;21.10;58.50
59651;DHT22;45954;49.768;8.636;2023-06-14T00:58:28;21.10;58.70
59651;DHT22;45954;49.768;8.636;2023-06-14T01:00:54;21.10;59.10
59651;DHT22;45954;49.768;8.636;2023-06-14T01:03:21;21.00;58.70
59651;DHT22;45954;49.768;8.636;2023-06-14T01:06:46;20.90;59.00
59651;DHT22;45954;49.768;8.636;2023-06-14T01:09:26;20.90;59.60
59651;DHT22;45954;49.768;8.636;2023-06-14T01:12:07;20.90;59.40
59651;DHT22;45954;49.768;8.636;2023-06-14T01:14:38;20.90;59.10
59651;DHT22;45954;49.768;8.636;2023-06-14T01:17:04;20.90;59.10
59651;DHT22;45954;49.768;8.636;2023-06-14T01:19:32;20.90;59.10
59651;DHT22;45954;49.768;8.636;2023-06-14T01:22:02;20.80;59.20
59651;DHT22;45954;49.768;8.636;2023-06-14T01:24:28;20.90;59.50
59651;DHT22;45954;49.768;8.636;2023-06-14T01:26:58;20.90;59.70
59651;DHT22;45954;49.768;8.636;2023-06-14T01:29:27;21.00;59.10
59651;DHT22;45954;49.768;8.636;2023-06-14T01:32:01;20.80;59.40
59651;DHT22;45954;49.768;8.636;2023-06-14T01:34:27;20.70;59.50
59651;DHT22;45954;49.768;8.636;2023-06-14T01:36:53;20.70;60.00
59651;DHT22;45954;49.768;8.636;2023-06-14T01:39:23;20.70;59.70
59651;DHT22;45954;49.768;8.636;2023-06-14T01:41:50;20.70;59.50
59651;DHT22;45954;49.768;8.636;2023-06-14T01:44:19;20.70;59.70
59651;DHT22;45954;49.768;8.636;2023-06-14T01:46:45;20.80;59.70
59651;DHT22;45954;49.768;8.636;2023-06-14T01:49:11;20.60;60.00
59651;DHT22;45954;49.768;8.636;2023-06-14T01:51:37;20.60;59.90
59651;DHT22;45954;49.768;8.636;2023-06-14T01:54:03;20.60;60.00
59651;DHT22;45954;49.768;8.636;2023-06-14T01:56:29;20.80;60.50
59651;DHT22;45954;49.768;8.636;2023-06-14T01:58:55;20.60;60.00
59651;DHT22;45954;49.768;8.636;2023-06-14T02:01:22;20.50;60.30
59651;DHT22;45954;49.768;8.636;2023-06-14T02:03:48;20.50;60.80
59651;DHT22;45954;49.768;8.636;2023-06-14T02:06:14;20.50;60.00
59651;DHT22;45954;49.768;8.636;2023-06-14T02:08:41;20.50;60.00
59651;DHT22;45954;49.768;8.636;2023-06-14T02:11:08;20.20;60.40
59651;DHT22;45954;49.768;8.636;2023-06-14T02:13:34;20.30;60.70
59651;DHT22;45954;49.768;8.636;2023-06-14T02:16:01;20.40;60.40
59651;DHT22;45954;49.768;8.636;2023-06-14T02:18:27;20.40;60.50
59651;DHT22;45954;49.768;8.636;2023-06-14T02:20:53;20.30;60.90
59651;DHT22;45954;49.768;8.636;2023-06-14T02:23:19;20.30;60.60
59651;DHT22;45954;49.768;8.636;2023-06-14T02:25:45;20.10;60.90
59651;DHT22;45954;49.768;8.636;2023-06-14T02:28:11;20.20;60.90
59651;DHT22;45954;49.768;8.636;2023-06-14T02:30:38;20.20;61.80
59651;DHT22;45954;49.768;8.636;2023-06-14T02:33:04;20.10;61.20
59651;DHT22;45954;49.768;8.636;2023-06-14T02:35:30;20.10;61.50
59651;DHT22;45954;49.768;8.636;2023-06-14T02:37:56;20.10;61.80
59651;DHT22;45954;49.768;8.636;2023-06-14T02:40:22;20.00;62.30
59651;DHT22;45954;49.768;8.636;2023-06-14T02:42:48;20.10;61.70
59651;DHT22;45954;49.768;8.636;2023-06-14T02:45:14;20.00;62.00
59651;DHT22;45954;49.768;8.636;2023-06-14T02:47:40;20.00;62.20
59651;DHT22;45954;49.768;8.636;2023-06-14T02:50:08;19.90;62.60
59651;DHT22;45954;49.768;8.636;2023-06-14T02:52:34;19.90;61.90
59651;DHT22;45954;49.768;8.636;2023-06-14T02:55:00;20.00;62.20
59651;DHT22;45954;49.768;8.636;2023-06-14T02:57:26;20.00;62.30
59651;DHT22;45954;49.768;8.636;2023-06-14T02:59:52;19.90;62.50
59651;DHT22;45954;49.768;8.636;2023-06-14T03:02:18;19.70;63.40
59651;DHT22;45954;49.768;8.636;2023-06-14T03:04:43;19.00;64.90
59651;DHT22;45954;49.768;8.636;2023-06-14T03:07:12;18.70;65.30
59651;DHT22;45954;49.768;8.636;2023-06-14T03:09:39;19.00;64.70
59651;DHT22;45954;49.768;8.636;2023-06-14T03:12:06;18.80;64.70
59651;DHT22;45954;49.768;8.636;2023-06-14T03:14:32;18.80;65.30
59651;DHT22;45954;49.768;8.636;2023-06-14T03:16:58;18.60;65.80
59651;DHT22;45954;49.768;8.636;2023-06-14T03:19:26;18.40;65.70
59651;DHT22;45954;49.768;8.636;2023-06-14T03:21:52;18.20;66.00
59651;DHT22;45954;49.768;8.636;2023-06-14T03:24:19;18.40;66.30
59651;DHT22;45954;49.768;8.636;2023-06-14T03:26:45;18.50;65.70
59651;DHT22;45954;49.768;8.636;2023-06-14T03:29:11;18.70;65.30
59651;DHT22;45954;49.768;8.636;2023-06-14T03:31:57;18.80;65.40
59651;DHT22;45954;49.768;8.636;2023-06-14T03:34:24;18.90;64.90
59651;DHT22;45954;49.768;8.636;2023-06-14T03:36:49;18.80;64.90
59651;DHT22;45954;49.768;8.636;2023-06-14T03:39:15;18.70;66.00
59651;DHT22;45954;49.768;8.636;2023-06-14T03:41:41;18.70;65.90
59651;DHT22;45954;49.768;8.636;2023-06-14T03:44:07;18.60;65.90
59651;DHT22;45954;49.768;8.636;2023-06-14T03:46:33;18.50;65.90
59651;DHT22;45954;49.768;8.636;2023-06-14T03:48:59;18.30;66.70
59651;DHT22;45954;49.768;8.636;2023-06-14T03:51:25;18.40;67.00
59651;DHT22;45954;49.768;8.636;2023-06-14T03:53:51;18.40;67.20
59651;DHT22;45954;49.768;8.636;2023-06-14T03:56:17;18.20;67.70
59651;DHT22;45954;49.768;8.636;2023-06-14T03:58:43;17.70;68.60
59651;DHT22;45954;49.768;8.636;2023-06-14T04:01:09;17.30;70.10
59651;DHT22;45954;49.768;8.636;2023-06-14T04:03:37;17.60;69.90
59651;DHT22;45954;49.768;8.636;2023-06-14T04:06:06;17.50;69.50
59651;DHT22;45954;49.768;8.636;2023-06-14T04:08:33;17.60;68.60
59651;DHT22;45954;49.768;8.636;2023-06-14T04:11:00;17.40;69.10
59651;DHT22;45954;49.768;8.636;2023-06-14T04:13:26;16.80;71.60
59651;DHT22;45954;49.768;8.636;2023-06-14T04:15:52;16.80;71.20
59651;DHT22;45954;49.768;8.636;2023-06-14T04:18:18;16.80;71.80
59651;DHT22;45954;49.768;8.636;2023-06-14T04:20:46;17.20;71.10
59651;DHT22;45954;49.768;8.636;2023-06-14T04:23:13;17.60;69.60
59651;DHT22;45954;49.768;8.636;2023-06-14T04:25:44;17.80;69.20
59651;DHT22;45954;49.768;8.636;2023-06-14T04:28:14;18.20;68.00
59651;DHT22;45954;49.768;8.636;2023-06-14T04:30:44;18.30;68.10
59651;DHT22;45954;49.768;8.636;2023-06-14T04:33:12;18.40;67.40
59651;DHT22;45954;49.768;8.636;2023-06-14T04:35:39;18.60;66.90
59651;DHT22;45954;49.768;8.636;2023-06-14T04:38:06;18.60;67.00
59651;DHT22;45954;49.768;8.636;2023-06-14T04:40:35;18.60;67.00
59651;DHT22;45954;49.768;8.636;2023-06-14T04:43:11;18.60;67.10
59651;DHT22;45954;49.768;8.636;2023-06-14T04:45:43;18.80;67.30
59651;DHT22;45954;49.768;8.636;2023-06-14T04:48:12;18.80;67.10
59651;DHT22;45954;49.768;8.636;2023-06-14T04:50:38;18.60;66.90
59651;DHT22;45954;49.768;8.636;2023-06-14T04:53:06;18.50;67.20
59651;DHT22;45954;49.768;8.636;2023-06-14T04:55:32;18.70;67.10
59651;DHT22;45954;49.768;8.636;2023-06-14T04:57:58;19.50;66.50
59651;DHT22;45954;49.768;8.636;2023-06-14T05:00:25;19.60;66.70
59651;DHT22;45954;49.768;8.636;2023-06-14T05:02:51;19.60;65.80
59651;DHT22;45954;49.768;8.636;2023-06-14T05:05:18;19.70;65.30
59651;DHT22;45954;49.768;8.636;2023-06-14T05:07:45;19.70;65.60
59651;DHT22;45954;49.768;8.636;2023-06-14T05:10:12;19.70;65.00
59651;DHT22;45954;49.768;8.636;2023-06-14T05:12:37;19.50;65.80
59651;DHT22;45954;49.768;8.636;2023-06-14T05:15:04;19.70;65.90
59651;DHT22;45954;49.768;8.636;2023-06-14T05:17:30;19.80;65.70
59651;DHT22;45954;49.768;8.636;2023-06-14T05:19:56;20.10;64.90
59651;DHT22;45954;49.768;8.636;2023-06-14T05:22:22;20.20;65.00
59651;DHT22;45954;49.768;8.636;2023-06-14T05:24:48;19.80;65.60
59651;DHT22;45954;49.768;8.636;2023-06-14T05:27:14;19.90;65.40
59651;DHT22;45954;49.768;8.636;2023-06-14T05:29:40;20.10;65.40
59651;DHT22;45954;49.768;8.636;2023-06-14T05:32:06;19.70;65.50
59651;DHT22;45954;49.768;8.636;2023-06-14T05:34:32;19.30;66.10
59651;DHT22;45954;49.768;8.636;2023-06-14T05:36:58;19.40;66.70
59651;DHT22;45954;49.768;8.636;2023-06-14T05:39:24;19.30;66.50
59651;DHT22;45954;49.768;8.636;2023-06-14T05:41:50;19.50;66.30
59651;DHT22;45954;49.768;8.636;2023-06-14T05:44:16;19.70;66.20
59651;DHT22;45954;49.768;8.636;2023-06-14T05:46:42;19.90;66.10
59651;DHT22;45954;49.768;8.636;2023-06-14T05:49:07;20.10;65.70
59651;DHT22;45954;49.768;8.636;2023-06-14T05:51:34;20.40;65.20
59651;DHT22;45954;49.768;8.636;2023-06-14T05:54:00;19.90;66.00
59651;DHT22;45954;49.768;8.636;2023-06-14T05:56:26;19.60;66.80
59651;DHT22;45954;49.768;8.636;2023-06-14T05:58:52;20.00;66.20
59651;DHT22;45954;49.768;8.636;2023-06-14T06:01:18;20.10;66.30
59651;DHT22;45954;49.768;8.636;2023-06-14T06:03:44;20.20;65.70
59651;DHT22;45954;49.768;8.636;2023-06-14T06:06:13;20.20;65.60
59651;DHT22;45954;49.768;8.636;2023-06-14T06:08:39;20.00;65.60
59651;DHT22;45954;49.768;8.636;2023-06-14T06:11:06;20.30;65.90
59651;DHT22;45954;49.768;8.636;2023-06-14T06:13:32;20.10;65.70
59651;DHT22;45954;49.768;8.636;2023-06-14T06:15:58;20.40;65.60
59651;DHT22;45954;49.768;8.636;2023-06-14T06:18:24;20.80;65.40
59651;DHT22;45954;49.768;8.636;2023-06-14T06:20:50;20.80;64.70
59651;DHT22;45954;49.768;8.636;2023-06-14T06:23:15;20.90;65.00
59651;DHT22;45954;49.768;8.636;2023-06-14T06:25:42;20.70;65.10
59651;DHT22;45954;49.768;8.636;2023-06-14T06:28:08;20.90;64.70
59651;DHT22;45954;49.768;8.636;2023-06-14T06:30:34;20.80;64.50
59651;DHT22;45954;49.768;8.636;2023-06-14T06:33:02;20.90;64.40
59651;DHT22;45954;49.768;8.636;2023-06-14T06:35:28;20.70;64.40
59651;DHT22;45954;49.768;8.636;2023-06-14T06:37:56;20.40;64.90
59651;DHT22;45954;49.768;8.636;2023-06-14T06:40:22;20.50;65.00
59651;DHT22;45954;49.768;8.636;2023-06-14T06:42:48;21.00;64.80
59651;DHT22;45954;49.768;8.636;2023-06-14T06:45:15;21.30;64.50
59651;DHT22;45954;49.768;8.636;2023-06-14T06:47:41;21.40;63.80
59651;DHT22;45954;49.768;8.636;2023-06-14T06:50:07;21.10;64.40
59651;DHT22;45954;49.768;8.636;2023-06-14T06:52:34;21.00;65.00
59651;DHT22;45954;49.768;8.636;2023-06-14T06:55:00;21.10;64.90
59651;DHT22;45954;49.768;8.636;2023-06-14T06:57:27;21.00;64.70
59651;DHT22;45954;49.768;8.636;2023-06-14T06:59:54;20.90;64.70
59651;DHT22;45954;49.768;8.636;2023-06-14T07:02:20;21.00;64.70
59651;DHT22;45954;49.768;8.636;2023-06-14T07:04:46;21.30;64.40
59651;DHT22;45954;49.768;8.636;2023-06-14T07:07:12;21.60;64.40
59651;DHT22;45954;49.768;8.636;2023-06-14T07:09:38;21.60;64.60
59651;DHT22;45954;49.768;8.636;2023-06-14T07:12:04;21.60;64.50
59651;DHT22;45954;49.768;8.636;2023-06-14T07:14:30;21.60;64.60
59651;DHT22;45954;49.768;8.636;2023-06-14T07:16:56;21.90;64.20
59651;DHT22;45954;49.768;8.636;2023-06-14T07:19:22;21.80;64.10
59651;DHT22;45954;49.768;8.636;2023-06-14T07:21:48;21.80;64.80
59651;DHT22;45954;49.768;8.636;2023-06-14T07:24:14;21.70;64.70
59651;DHT22;45954;49.768;8.636;2023-06-14T07:26:39;21.90;64.20
59651;DHT22;45954;49.768;8.636;2023-06-14T07:29:05;21.80;64.10
59651;DHT22;45954;49.768;8.636;2023-06-14T07:31:31;22.00;64.40
59651;DHT22;45954;49.768;8.636;2023-06-14T07:33:57;22.10;64.20
59651;DHT22;45954;49.768;8.636;2023-06-14T07:36:23;22.40;64.40
59651;DHT22;45954;49.768;8.636;2023-06-14T07:38:49;22.20;64.40
59651;DHT22;45954;49.768;8.636;2023-06-14T07:41:15;22.20;63.90
59651;DHT22;45954;49.768;8.636;2023-06-14T07:43:41;22.10;64.00
59651;DHT22;45954;49.768;8.636;2023-06-14T07:46:07;22.10;63.70
59651;DHT22;45954;49.768;8.636;2023-06-14T07:48:34;22.10;63.30
59651;DHT22;45954;49.768;8.636;2023-06-14T07:51:00;22.10;63.50
59651;DHT22;45954;49.768;8.636;2023-06-14T07:53:26;22.60;63.30
59651;DHT22;45954;49.768;8.636;2023-06-14T07:55:52;22.90;62.60
59651;DHT22;45954;49.768;8.636;2023-06-14T07:58:18;22.80;62.50
59651;DHT22;45954;49.768;8.636;2023-06-14T08:00:44;22.60;62.70
59651;DHT22;45954;49.768;8.636;2023-06-14T08:03:10;22.60;62.70
59651;DHT22;45954;49.768;8.636;2023-06-14T08:05:35;22.60;62.80
59651;DHT22;45954;49.768;8.636;2023-06-14T08:08:01;22.80;63.00
59651;DHT22;45954;49.768;8.636;2023-06-14T08:10:27;23.00;62.90
59651;DHT22;45954;49.768;8.636;2023-06-14T08:12:53;23.20;63.10
59651;DHT22;45954;49.768;8.636;2023-06-14T08:15:19;23.40;61.70
59651;DHT22;45954;49.768;8.636;2023-06-14T08:17:46;23.50;60.80
59651;DHT22;45954;49.768;8.636;2023-06-14T08:20:12;23.30;60.90
59651;DHT22;45954;49.768;8.636;2023-06-14T08:22:39;23.30;61.00
59651;DHT22;45954;49.768;8.636;2023-06-14T08:25:08;23.10;60.80
59651;DHT22;45954;49.768;8.636;2023-06-14T08:27:34;23.10;61.50
59651;DHT22;45954;49.768;8.636;2023-06-14T08:30:01;23.40;61.60
59651;DHT22;45954;49.768;8.636;2023-06-14T08:32:28;23.70;60.60
59651;DHT22;45954;49.768;8.636;2023-06-14T08:34:54;23.70;59.80
59651;DHT22;45954;49.768;8.636;2023-06-14T08:37:20;23.40;61.50
59651;DHT22;45954;49.768;8.636;2023-06-14T08:39:46;23.60;60.40
59651;DHT22;45954;49.768;8.636;2023-06-14T08:42:14;23.90;59.50
59651;DHT22;45954;49.768;8.636;2023-06-14T08:44:40;24.20;59.90
59651;DHT22;45954;49.768;8.636;2023-06-14T08:47:07;24.20;59.40
59651;DHT22;45954;49.768;8.636;2023-06-14T08:49:38;24.40;60.00
59651;DHT22;45954;49.768;8.636;2023-06-14T08:52:08;24.60;59.60
59651;DHT22;45954;49.768;8.636;2023-06-14T08:54:36;24.80;59.80
59651;DHT22;45954;49.768;8.636;2023-06-14T08:57:11;24.60;59.60
59651;DHT22;45954;49.768;8.636;2023-06-14T08:59:51;24.50;58.90
59651;DHT22;45954;49.768;8.636;2023-06-14T09:02:18;24.50;59.30
59651;DHT22;45954;49.768;8.636;2023-06-14T09:04:48;24.60;58.80
59651;DHT22;45954;49.768;8.636;2023-06-14T09:07:15;24.50;58.60
59651;DHT22;45954;49.768;8.636;2023-06-14T09:09:41;24.60;59.30
59651;DHT22;45954;49.768;8.636;2023-06-14T09:12:09;24.60;60.00
59651;DHT22;45954;49.768;8.636;2023-06-14T09:14:36;25.00;59.50
59651;DHT22;45954;49.768;8.636;2023-06-14T09:17:06;25.20;58.30
59651;DHT22;45954;49.768;8.636;2023-06-14T09:19:34;24.70;58.90
59651;DHT22;45954;49.768;8.636;2023-06-14T09:22:02;24.90;59.00
59651;DHT22;45954;49.768;8.636;2023-06-14T09:24:29;24.80;57.40
59651;DHT22;45954;49.768;8.636;2023-06-14T09:26:55;24.90;57.70
59651;DHT22;45954;49.768;8.636;2023-06-14T09:29:21;25.20;57.10
59651;DHT22;45954;49.768;8.636;2023-06-14T09:31:47;25.00;56.80
59651;DHT22;45954;49.768;8.636;2023-06-14T09:34:13;25.10;56.80
59651;DHT22;45954;49.768;8.636;2023-06-14T09:36:42;25.00;57.30
59651;DHT22;45954;49.768;8.636;2023-06-14T09:39:08;24.90;58.10
59651;DHT22;45954;49.768;8.636;2023-06-14T09:41:37;25.20;55.70
59651;DHT22;45954;49.768;8.636;2023-06-14T09:44:06;25.50;55.00
59651;DHT22;45954;49.768;8.636;2023-06-14T09:46:33;25.40;54.60
59651;DHT22;45954;49.768;8.636;2023-06-14T09:49:02;25.60;55.60
59651;DHT22;45954;49.768;8.636;2023-06-14T09:51:29;25.70;56.70
59651;DHT22;45954;49.768;8.636;2023-06-14T09:54:00;25.60;56.20
59651;DHT22;45954;49.768;8.636;2023-06-14T09:56:28;25.60;56.00
59651;DHT22;45954;49.768;8.636;2023-06-14T09:58:57;25.50;55.80
59651;DHT22;45954;49.768;8.636;2023-06-14T10:01:25;25.70;55.80
59651;DHT22;45954;49.768;8.636;2023-06-14T10:04:10;25.70;55.70
59651;DHT22;45954;49.768;8.636;2023-06-14T10:06:43;25.80;55.90
59651;DHT22;45954;49.768;8.636;2023-06-14T10:09:12;26.00;55.90
59651;DHT22;45954;49.768;8.636;2023-06-14T10:11:38;26.00;55.80
59651;DHT22;45954;49.768;8.636;2023-06-14T10:14:12;26.00;55.60
59651;DHT22;45954;49.768;8.636;2023-06-14T10:19:37;26.50;55.60
59651;DHT22;45954;49.768;8.636;2023-06-14T10:22:14;26.30;56.10
59651;DHT22;45954;49.768;8.636;2023-06-14T10:25:27;26.40;56.00
59651;DHT22;45954;49.768;8.636;2023-06-14T10:30:39;25.20;56.50
59651;DHT22;45954;49.768;8.636;2023-06-14T10:33:07;25.60;57.10
59651;DHT22;45954;49.768;8.636;2023-06-14T10:35:34;25.90;56.70
59651;DHT22;45954;49.768;8.636;2023-06-14T10:38:11;26.10;56.40
59651;DHT22;45954;49.768;8.636;2023-06-14T10:40:39;26.00;58.20
59651;DHT22;45954;49.768;8.636;2023-06-14T10:43:22;26.60;57.30
59651;DHT22;45954;49.768;8.636;2023-06-14T10:48:44;27.00;55.60
59651;DHT22;45954;49.768;8.636;2023-06-14T10:51:19;26.90;55.30
59651;DHT22;45954;49.768;8.636;2023-06-14T10:53:48;26.90;56.10
59651;DHT22;45954;49.768;8.636;2023-06-14T10:56:27;27.20;55.70
59651;DHT22;45954;49.768;8.636;2023-06-14T10:58:55;27.30;55.60
59651;DHT22;45954;49.768;8.636;2023-06-14T11:04:47;26.90;55.40
59651;DHT22;45954;49.768;8.636;2023-06-14T11:07:44;26.30;55.60
59651;DHT22;45954;49.768;8.636;2023-06-14T11:13:04;26.80;56.00
59651;DHT22;45954;49.768;8.636;2023-06-14T11:15:35;27.20;54.60
59651;DHT22;45954;49.768;8.636;2023-06-14T11:18:07;27.20;55.60
59651;DHT22;45954;49.768;8.636;2023-06-14T11:20:36;27.70;55.30
59651;DHT22;45954;49.768;8.636;2023-06-14T11:23:03;27.70;54.00
59651;DHT22;45954;49.768;8.636;2023-06-14T11:25:30;27.80;54.90
59651;DHT22;45954;49.768;8.636;2023-06-14T11:27:57;28.20;54.80
59651;DHT22;45954;49.768;8.636;2023-06-14T11:30:23;28.50;54.50
59651;DHT22;45954;49.768;8.636;2023-06-14T11:32:52;28.50;55.00
59651;DHT22;45954;49.768;8.636;2023-06-14T11:35:22;27.70;54.40
59651;DHT22;45954;49.768;8.636;2023-06-14T11:37:55;27.90;54.60
59651;DHT22;45954;49.768;8.636;2023-06-14T11:40:26;27.80;55.20
59651;DHT22;45954;49.768;8.636;2023-06-14T11:43:00;27.00;54.80
59651;DHT22;45954;49.768;8.636;2023-06-14T11:45:28;26.70;55.20
59651;DHT22;45954;49.768;8.636;2023-06-14T11:47:58;26.20;55.60
59651;DHT22;45954;49.768;8.636;2023-06-14T11:50:25;26.30;56.30
59651;DHT22;45954;49.768;8.636;2023-06-14T11:52:57;26.30;55.60
59651;DHT22;45954;49.768;8.636;2023-06-14T11:55:36;27.10;55.00
59651;DHT22;45954;49.768;8.636;2023-06-14T11:58:03;27.30;54.60
59651;DHT22;45954;49.768;8.636;2023-06-14T12:00:29;26.90;54.20
59651;DHT22;45954;49.768;8.636;2023-06-14T12:02:55;26.80;55.40
59651;DHT22;45954;49.768;8.636;2023-06-14T12:05:23;27.30;55.30
59651;DHT22;45954;49.768;8.636;2023-06-14T12:07:50;27.60;54.40
59651;DHT22;45954;49.768;8.636;2023-06-14T12:10:19;27.70;54.00
59651;DHT22;45954;49.768;8.636;2023-06-14T12:12:45;27.20;54.30
59651;DHT22;45954;49.768;8.636;2023-06-14T12:15:11;26.90;54.50
59651;DHT22;45954;49.768;8.636;2023-06-14T12:17:38;26.50;54.70
59651;DHT22;45954;49.768;8.636;2023-06-14T12:20:11;26.40;54.80
59651;DHT22;45954;49.768;8.636;2023-06-14T12:22:58;27.40;54.00
59651;DHT22;45954;49.768;8.636;2023-06-14T12:25:34;28.30;54.50
59651;DHT22;45954;49.768;8.636;2023-06-14T12:28:07;28.30;53.20
59651;DHT22;45954;49.768;8.636;2023-06-14T12:30:37;27.70;52.80
59651;DHT22;45954;49.768;8.636;2023-06-14T12:33:03;28.10;54.30
59651;DHT22;45954;49.768;8.636;2023-06-14T12:35:30;28.30;53.20
59651;DHT22;45954;49.768;8.636;2023-06-14T12:37:56;28.20;53.20
59651;DHT22;45954;49.768;8.636;2023-06-14T12:40:22;27.80;54.20
59651;DHT22;45954;49.768;8.636;2023-06-14T12:42:48;28.30;54.40
59651;DHT22;45954;49.768;8.636;2023-06-14T12:45:14;28.90;53.20
59651;DHT22;45954;49.768;8.636;2023-06-14T12:47:41;29.00;53.20
59651;DHT22;45954;49.768;8.636;2023-06-14T12:50:08;28.60;53.40
59651;DHT22;45954;49.768;8.636;2023-06-14T12:52:34;28.70;54.00
59651;DHT22;45954;49.768;8.636;2023-06-14T12:55:04;29.50;52.30
59651;DHT22;45954;49.768;8.636;2023-06-14T12:57:31;29.60;52.50
59651;DHT22;45954;49.768;8.636;2023-06-14T12:59:57;29.60;52.80
59651;DHT22;45954;49.768;8.636;2023-06-14T13:02:24;29.70;52.80
59651;DHT22;45954;49.768;8.636;2023-06-14T13:04:51;30.20;51.40
59651;DHT22;45954;49.768;8.636;2023-06-14T13:07:17;30.60;52.00
59651;DHT22;45954;49.768;8.636;2023-06-14T13:09:43;30.40;51.40
59651;DHT22;45954;49.768;8.636;2023-06-14T13:12:12;30.30;51.40
59651;DHT22;45954;49.768;8.636;2023-06-14T13:14:39;30.30;51.60
59651;DHT22;45954;49.768;8.636;2023-06-14T13:17:09;30.50;52.30
59651;DHT22;45954;49.768;8.636;2023-06-14T13:19:36;31.00;51.30
59651;DHT22;45954;49.768;8.636;2023-06-14T13:22:02;30.20;51.50
59651;DHT22;45954;49.768;8.636;2023-06-14T13:24:28;30.00;51.80
59651;DHT22;45954;49.768;8.636;2023-06-14T13:26:55;30.10;51.30
59651;DHT22;45954;49.768;8.636;2023-06-14T13:29:22;28.50;52.40
59651;DHT22;45954;49.768;8.636;2023-06-14T13:31:48;29.30;52.80
59651;DHT22;45954;49.768;8.636;2023-06-14T13:34:14;29.50;51.90
59651;DHT22;45954;49.768;8.636;2023-06-14T13:36:40;29.70;52.10
59651;DHT22;45954;49.768;8.636;2023-06-14T13:39:06;30.30;51.60
59651;DHT22;45954;49.768;8.636;2023-06-14T13:41:32;30.30;51.70
59651;DHT22;45954;49.768;8.636;2023-06-14T13:44:00;30.50;51.80
59651;DHT22;45954;49.768;8.636;2023-06-14T13:46:26;29.30;51.90
59651;DHT22;45954;49.768;8.636;2023-06-14T13:48:53;29.40;52.20
59651;DHT22;45954;49.768;8.636;2023-06-14T13:51:19;29.00;52.00
59651;DHT22;45954;49.768;8.636;2023-06-14T13:53:49;28.50;52.60
59651;DHT22;45954;49.768;8.636;2023-06-14T13:56:17;28.50;52.70
59651;DHT22;45954;49.768;8.636;2023-06-14T13:58:44;28.00;52.50
59651;DHT22;45954;49.768;8.636;2023-06-14T14:01:11;27.20;53.20
59651;DHT22;45954;49.768;8.636;2023-06-14T14:03:38;27.60;53.20
59651;DHT22;45954;49.768;8.636;2023-06-14T14:06:04;28.30;53.40
59651;DHT22;45954;49.768;8.636;2023-06-14T14:08:31;28.60;53.00
59651;DHT22;45954;49.768;8.636;2023-06-14T14:10:57;29.70;51.50
59651;DHT22;45954;49.768;8.636;2023-06-14T14:13:23;30.10;51.40
59651;DHT22;45954;49.768;8.636;2023-06-14T14:15:48;29.60;52.00
59651;DHT22;45954;49.768;8.636;2023-06-14T14:18:14;30.30;52.10
59651;DHT22;45954;49.768;8.636;2023-06-14T14:20:41;30.30;50.40
59651;DHT22;45954;49.768;8.636;2023-06-14T14:23:07;30.80;50.50
59651;DHT22;45954;49.768;8.636;2023-06-14T14:25:32;30.90;51.30
59651;DHT22;45954;49.768;8.636;2023-06-14T14:27:58;31.70;49.80
59651;DHT22;45954;49.768;8.636;2023-06-14T14:30:24;32.40;50.20
59651;DHT22;45954;49.768;8.636;2023-06-14T14:32:50;32.80;50.40
59651;DHT22;45954;49.768;8.636;2023-06-14T14:35:17;32.70;49.10
59651;DHT22;45954;49.768;8.636;2023-06-14T14:37:44;32.10;49.70
59651;DHT22;45954;49.768;8.636;2023-06-14T14:40:11;31.80;50.10
59651;DHT22;45954;49.768;8.636;2023-06-14T14:42:37;31.10;49.60
59651;DHT22;45954;49.768;8.636;2023-06-14T14:45:03;30.10;50.60
59651;DHT22;45954;49.768;8.636;2023-06-14T14:47:30;29.80;50.90
59651;DHT22;45954;49.768;8.636;2023-06-14T14:49:56;29.50;51.50
59651;DHT22;45954;49.768;8.636;2023-06-14T14:52:22;30.00;50.90
59651;DHT22;45954;49.768;8.636;2023-06-14T14:54:47;31.10;50.30
59651;DHT22;45954;49.768;8.636;2023-06-14T14:57:13;31.10;51.40
59651;DHT22;45954;49.768;8.636;2023-06-14T14:59:39;31.60;49.40
59651;DHT22;45954;49.768;8.636;2023-06-14T15:02:05;31.10;50.40
59651;DHT22;45954;49.768;8.636;2023-06-14T15:04:32;30.40;50.50
59651;DHT22;45954;49.768;8.636;2023-06-14T15:06:57;29.80;51.20
59651;DHT22;45954;49.768;8.636;2023-06-14T15:09:23;29.70;50.80
59651;DHT22;45954;49.768;8.636;2023-06-14T15:11:49;30.70;50.30
59651;DHT22;45954;49.768;8.636;2023-06-14T15:14:15;31.30;50.00
59651;DHT22;45954;49.768;8.636;2023-06-14T15:16:41;30.90;49.50
59651;DHT22;45954;49.768;8.636;2023-06-14T15:19:07;31.60;50.10
59651;DHT22;45954;49.768;8.636;2023-06-14T15:21:33;32.10;49.10
59651;DHT22;45954;49.768;8.636;2023-06-14T15:23:59;32.30;49.10
59651;DHT22;45954;49.768;8.636;2023-06-14T15:26:25;32.70;49.20
59651;DHT22;45954;49.768;8.636;2023-06-14T15:28:51;32.20;48.60
59651;DHT22;45954;49.768;8.636;2023-06-14T15:31:17;31.60;49.70
59651;DHT22;45954;49.768;8.636;2023-06-14T15:33:43;31.80;49.20
59651;DHT22;45954;49.768;8.636;2023-06-14T15:36:10;31.10;48.80
59651;DHT22;45954;49.768;8.636;2023-06-14T15:38:36;31.10;49.10
59651;DHT22;45954;49.768;8.636;2023-06-14T15:41:02;31.10;49.00
59651;DHT22;45954;49.768;8.636;2023-06-14T15:43:28;31.00;49.00
59651;DHT22;45954;49.768;8.636;2023-06-14T15:45:55;31.30;49.50